Time;durP1;ratioP1;P1;durP2;ratioP2;P2;SDS_P1;SDS_P2;PMS_P1;PMS_P2;Temp;Humidity;BMP_temperature;BMP_pressure;BME280_temperature;BME280_humidity;BME280_pressure;Samples;Min_cycle;Max_cycle;Signal;HPM_P1;HPM_P2
2023/07/17 00:02:18;;;;;;;;;;;24.00;54.90;;;;;;10252061;28;90168;-65
2023/07/17 00:07:20;;;;;;;;;;;24.00;54.50;;;;;;10247491;28;90642;-64
2023/07/17 00:12:22;;;;;;;;;;;24.00;54.50;;;;;;10251491;28;91230;-64
2023/07/17 00:17:23;;;;;;;;;;;24.00;54.50;;;;;;10252111;28;89380;-64
2023/07/17 00:22:25;;;;;;;;;;;24.00;54.40;;;;;;10252527;28;89593;-64
2023/07/17 00:27:27;;;;;;;;;;;24.00;54.30;;;;;;10251414;28;89140;-64
2023/07/17 00:32:29;;;;;;;;;;;24.00;54.30;;;;;;10218988;28;89397;-64
2023/07/17 00:37:31;;;;;;;;;;;24.00;54.20;;;;;;10251615;28;88121;-64
2023/07/17 00:42:32;;;;;;;;;;;24.00;54.20;;;;;;10251490;28;90080;-64
2023/07/17 00:47:34;;;;;;;;;;;24.00;54.20;;;;;;10251404;28;90504;-63
2023/07/17 00:52:38;;;;;;;;;;;24.00;54.10;;;;;;10243612;28;90099;-64
2023/07/17 00:57:41;;;;;;;;;;;24.00;53.90;;;;;;10251100;28;89156;-64
2023/07/17 01:02:43;;;;;;;;;;;24.00;54.00;;;;;;10251164;28;92420;-65
2023/07/17 01:07:45;;;;;;;;;;;23.90;53.90;;;;;;10244222;28;90597;-65
2023/07/17 01:12:46;;;;;;;;;;;23.90;53.80;;;;;;10246985;28;89769;-65
2023/07/17 01:17:48;;;;;;;;;;;23.90;53.80;;;;;;10251347;28;90050;-65
2023/07/17 01:22:59;;;;;;;;;;;23.90;53.80;;;;;;10250284;28;89270;-65
2023/07/17 01:28:01;;;;;;;;;;;23.90;53.90;;;;;;10251756;28;89231;-65
2023/07/17 01:33:03;;;;;;;;;;;23.80;53.90;;;;;;10249092;28;88142;-64
2023/07/17 01:38:05;;;;;;;;;;;23.80;53.90;;;;;;10250234;28;88538;-65
2023/07/17 01:43:07;;;;;;;;;;;23.80;54.00;;;;;;10249531;28;90741;-64
2023/07/17 01:48:09;;;;;;;;;;;23.80;54.00;;;;;;10250368;28;90360;-65
2023/07/17 01:53:11;;;;;;;;;;;23.80;54.00;;;;;;10257097;28;89974;-65
2023/07/17 01:58:13;;;;;;;;;;;23.80;54.00;;;;;;10239015;28;89011;-65
2023/07/17 02:03:15;;;;;;;;;;;23.80;54.00;;;;;;10255919;28;88537;-65
2023/07/17 02:08:17;;;;;;;;;;;23.80;54.00;;;;;;10255559;28;89377;-64
2023/07/17 02:13:19;;;;;;;;;;;23.80;54.00;;;;;;10256898;28;88440;-65
2023/07/17 02:18:21;;;;;;;;;;;23.70;53.90;;;;;;10258064;28;89436;-65
2023/07/17 02:23:22;;;;;;;;;;;23.70;53.90;;;;;;10256600;28;89961;-65
2023/07/17 02:28:24;;;;;;;;;;;23.70;53.90;;;;;;10254888;28;89184;-65
2023/07/17 02:33:26;;;;;;;;;;;23.70;53.80;;;;;;10236718;28;89934;-65
2023/07/17 02:38:28;;;;;;;;;;;23.70;53.90;;;;;;10249102;28;89631;-65
2023/07/17 02:43:30;;;;;;;;;;;23.70;53.90;;;;;;10236120;28;88106;-64
2023/07/17 02:48:32;;;;;;;;;;;23.70;54.00;;;;;;10236458;28;89326;-64
2023/07/17 02:53:34;;;;;;;;;;;23.60;53.90;;;;;;10254238;28;89311;-64
2023/07/17 02:58:41;;;;;;;;;;;23.60;54.00;;;;;;10253566;28;89329;-64
2023/07/17 03:03:43;;;;;;;;;;;23.60;53.90;;;;;;10253068;28;90131;-64
2023/07/17 03:08:45;;;;;;;;;;;23.60;53.90;;;;;;10255154;28;89719;-64
2023/07/17 03:13:46;;;;;;;;;;;23.60;54.00;;;;;;10253263;28;89479;-64
2023/07/17 03:18:48;;;;;;;;;;;23.50;53.90;;;;;;10253952;28;90081;-64
2023/07/17 03:23:50;;;;;;;;;;;23.50;53.90;;;;;;10234995;28;88835;-63
2023/07/17 03:28:52;;;;;;;;;;;23.50;53.90;;;;;;10253547;28;89747;-65
2023/07/17 03:33:54;;;;;;;;;;;23.50;54.00;;;;;;10253940;28;89174;-64
2023/07/17 03:38:56;;;;;;;;;;;23.50;54.00;;;;;;10253808;28;89195;-65
2023/07/17 03:44:00;;;;;;;;;;;23.50;53.90;;;;;;10253618;28;88905;-63
2023/07/17 03:49:02;;;;;;;;;;;23.40;53.90;;;;;;10234383;28;90216;-65
2023/07/17 03:54:04;;;;;;;;;;;23.50;54.00;;;;;;10248748;28;90070;-65
2023/07/17 03:59:05;;;;;;;;;;;23.50;54.00;;;;;;10255174;28;89466;-63
2023/07/17 04:04:07;;;;;;;;;;;23.50;54.10;;;;;;10235338;28;89159;-64
2023/07/17 04:09:09;;;;;;;;;;;23.40;53.90;;;;;;10254344;28;89814;-65
2023/07/17 04:14:11;;;;;;;;;;;23.40;53.90;;;;;;10253208;28;90753;-64
2023/07/17 04:19:13;;;;;;;;;;;23.40;53.90;;;;;;10254278;28;90429;-65
2023/07/17 04:24:15;;;;;;;;;;;23.40;53.90;;;;;;10236341;28;88178;-65
2023/07/17 04:29:17;;;;;;;;;;;23.40;53.90;;;;;;10252864;28;89020;-65
2023/07/17 04:34:19;;;;;;;;;;;23.40;54.00;;;;;;10247540;28;90086;-65
2023/07/17 04:39:20;;;;;;;;;;;23.40;54.00;;;;;;10249138;28;90408;-65
2023/07/17 04:44:22;;;;;;;;;;;23.40;54.00;;;;;;10252689;28;88970;-65
2023/07/17 04:49:24;;;;;;;;;;;23.40;54.10;;;;;;10639008;23;89453;-66
2023/07/17 04:54:25;;;;;;;;;;;23.40;55.00;;;;;;10251426;28;89045;-63
2023/07/17 04:59:27;;;;;;;;;;;23.40;54.00;;;;;;10248050;28;89077;-67
2023/07/17 05:04:29;;;;;;;;;;;23.40;54.00;;;;;;10246209;28;89997;-67
2023/07/17 05:09:31;;;;;;;;;;;23.40;54.10;;;;;;10250878;28;89313;-66
2023/07/17 05:14:32;;;;;;;;;;;23.40;54.20;;;;;;10235050;28;89617;-67
2023/07/17 05:19:34;;;;;;;;;;;23.40;54.30;;;;;;10252260;28;90202;-67
2023/07/17 05:24:36;;;;;;;;;;;23.40;54.20;;;;;;10250945;28;89119;-63
2023/07/17 05:29:38;;;;;;;;;;;23.50;54.40;;;;;;10252132;28;90269;-66
2023/07/17 05:34:40;;;;;;;;;;;23.40;54.20;;;;;;10250514;28;90579;-66
2023/07/17 05:39:42;;;;;;;;;;;23.50;54.30;;;;;;10229250;28;88643;-67
2023/07/17 05:44:44;;;;;;;;;;;23.50;54.20;;;;;;10199283;28;89279;-66
2023/07/17 05:49:45;;;;;;;;;;;23.50;54.20;;;;;;10243780;28;90090;-68
2023/07/17 05:54:47;;;;;;;;;;;23.50;55.00;;;;;;10248120;28;89945;-68
2023/07/17 05:59:49;;;;;;;;;;;23.50;55.40;;;;;;10249740;28;88329;-67
2023/07/17 06:04:51;;;;;;;;;;;23.60;55.50;;;;;;10232490;28;88233;-65
2023/07/17 06:09:53;;;;;;;;;;;23.60;56.30;;;;;;10249491;28;89014;-64
2023/07/17 06:14:55;;;;;;;;;;;23.60;56.30;;;;;;10250980;28;89110;-66
2023/07/17 06:19:57;;;;;;;;;;;23.70;56.50;;;;;;10250534;28;89911;-65
2023/07/17 06:24:58;;;;;;;;;;;23.70;56.30;;;;;;10250316;28;89090;-66
2023/07/17 06:30:00;;;;;;;;;;;23.70;56.20;;;;;;10249949;28;89774;-67
2023/07/17 06:35:05;;;;;;;;;;;23.70;55.90;;;;;;10250631;28;89069;-66
2023/07/17 06:40:07;;;;;;;;;;;23.70;55.60;;;;;;10240158;28;90134;-67
2023/07/17 06:45:09;;;;;;;;;;;23.70;55.50;;;;;;10239442;28;90923;-66
2023/07/17 06:50:11;;;;;;;;;;;23.70;56.00;;;;;;10256094;28;90256;-66
2023/07/17 06:55:13;;;;;;;;;;;23.80;56.40;;;;;;10257114;28;90035;-66
2023/07/17 07:00:15;;;;;;;;;;;23.80;55.60;;;;;;10259514;28;89798;-68
2023/07/17 07:05:16;;;;;;;;;;;23.80;55.90;;;;;;10255985;28;88110;-67
2023/07/17 07:10:18;;;;;;;;;;;23.90;55.60;;;;;;10255614;28;89944;-62
2023/07/17 07:15:20;;;;;;;;;;;23.90;55.20;;;;;;10255007;28;90150;-67
2023/07/17 07:20:22;;;;;;;;;;;23.90;55.10;;;;;;10255989;28;89417;-67
2023/07/17 07:25:24;;;;;;;;;;;23.80;54.90;;;;;;10255403;28;89603;-67
2023/07/17 07:30:26;;;;;;;;;;;23.80;54.90;;;;;;10256062;28;90125;-66
2023/07/17 07:35:28;;;;;;;;;;;23.80;54.90;;;;;;10254415;28;90397;-67
2023/07/17 07:40:30;;;;;;;;;;;23.80;54.80;;;;;;10239125;28;89473;-66
2023/07/17 07:45:31;;;;;;;;;;;23.80;54.90;;;;;;10256795;28;90071;-67
2023/07/17 07:50:33;;;;;;;;;;;23.80;54.90;;;;;;10255795;28;89178;-66
2023/07/17 07:55:36;;;;;;;;;;;23.80;54.90;;;;;;10255891;28;89366;-67
2023/07/17 08:00:38;;;;;;;;;;;23.80;54.90;;;;;;10238685;28;89663;-66
2023/07/17 08:05:39;;;;;;;;;;;23.80;55.90;;;;;;10238712;28;89247;-67
2023/07/17 08:10:43;;;;;;;;;;;23.80;55.10;;;;;;10255868;28;88134;-66
2023/07/17 08:15:45;;;;;;;;;;;23.80;55.10;;;;;;10255516;28;89908;-66
2023/07/17 08:20:46;;;;;;;;;;;23.80;55.10;;;;;;10253788;28;89052;-67
2023/07/17 08:25:48;;;;;;;;;;;23.80;55.10;;;;;;10252361;28;90741;-67
2023/07/17 08:30:50;;;;;;;;;;;23.80;55.20;;;;;;10251369;28;88893;-67
2023/07/17 08:35:52;;;;;;;;;;;23.80;55.10;;;;;;10252633;28;89722;-68
2023/07/17 08:40:54;;;;;;;;;;;23.80;55.20;;;;;;10252761;28;90255;-67
2023/07/17 08:45:57;;;;;;;;;;;23.80;55.10;;;;;;10254040;28;90077;-67
2023/07/17 08:51:01;;;;;;;;;;;23.80;55.10;;;;;;10253259;28;89019;-67
2023/07/17 08:56:04;;;;;;;;;;;23.80;55.10;;;;;;10253463;28;88493;-63
2023/07/17 09:01:07;;;;;;;;;;;23.80;54.90;;;;;;10253383;28;89582;-63
2023/07/17 09:06:12;;;;;;;;;;;23.80;54.90;;;;;;10232907;28;89274;-64
2023/07/17 09:11:14;;;;;;;;;;;23.80;54.70;;;;;;10251636;28;89207;-63
2023/07/17 09:16:18;;;;;;;;;;;23.80;54.70;;;;;;10233984;28;90639;-64
2023/07/17 09:21:23;;;;;;;;;;;23.80;54.70;;;;;;10233604;28;109560;-64
2023/07/17 09:26:25;;;;;;;;;;;23.80;54.70;;;;;;10251732;28;90217;-64
2023/07/17 09:31:27;;;;;;;;;;;23.80;54.70;;;;;;10234271;28;89678;-63
2023/07/17 09:36:29;;;;;;;;;;;23.80;54.90;;;;;;10251000;28;90303;-63
2023/07/17 09:41:31;;;;;;;;;;;23.80;54.90;;;;;;10251230;28;90053;-63
2023/07/17 09:46:34;;;;;;;;;;;23.80;55.00;;;;;;10233729;28;89165;-63
2023/07/17 09:51:36;;;;;;;;;;;23.80;54.80;;;;;;10250175;28;88297;-67
2023/07/17 09:56:40;;;;;;;;;;;23.90;54.70;;;;;;10252296;28;90147;-67
2023/07/17 10:01:44;;;;;;;;;;;23.90;54.60;;;;;;10233283;28;88297;-68
2023/07/17 10:06:46;;;;;;;;;;;24.00;54.40;;;;;;10249341;28;90017;-63
2023/07/17 10:11:48;;;;;;;;;;;24.00;54.20;;;;;;10255005;28;89545;-64
2023/07/17 10:16:53;;;;;;;;;;;24.00;54.00;;;;;;10240450;28;89096;-67
2023/07/17 10:21:56;;;;;;;;;;;24.10;53.90;;;;;;10240734;28;89530;-64
2023/07/17 10:27:00;;;;;;;;;;;24.10;53.70;;;;;;10238491;28;89171;-63
2023/07/17 10:32:08;;;;;;;;;;;24.10;53.60;;;;;;10256877;28;89545;-67
2023/07/17 10:37:17;;;;;;;;;;;24.10;53.60;;;;;;10257072;28;90340;-67
2023/07/17 10:42:19;;;;;;;;;;;24.10;53.40;;;;;;10224057;28;88391;-67
2023/07/17 10:47:20;;;;;;;;;;;24.00;53.20;;;;;;10256351;28;88155;-67
2023/07/17 10:52:22;;;;;;;;;;;24.10;53.20;;;;;;10256244;28;90010;-63
2023/07/17 10:57:24;;;;;;;;;;;24.00;53.20;;;;;;10255615;28;90791;-63
2023/07/17 11:02:26;;;;;;;;;;;24.00;53.20;;;;;;10256925;28;89165;-63
2023/07/17 11:07:31;;;;;;;;;;;24.00;53.10;;;;;;10256074;28;90244;-63
2023/07/17 11:12:33;;;;;;;;;;;24.00;53.20;;;;;;10239456;28;88828;-64
2023/07/17 11:17:34;;;;;;;;;;;23.90;53.10;;;;;;10255268;28;89255;-64
2023/07/17 11:22:38;;;;;;;;;;;23.90;53.10;;;;;;10254923;28;89615;-64
2023/07/17 11:27:40;;;;;;;;;;;23.90;53.30;;;;;;10255295;28;89021;-64
2023/07/17 11:32:42;;;;;;;;;;;23.80;53.30;;;;;;10256550;28;88434;-64
2023/07/17 11:37:44;;;;;;;;;;;23.80;53.40;;;;;;10255429;28;90099;-63
2023/07/17 11:42:56;;;;;;;;;;;23.90;53.70;;;;;;10237903;28;88169;-67
2023/07/17 11:47:57;;;;;;;;;;;23.80;53.80;;;;;;10253530;28;90041;-67
2023/07/17 11:53:06;;;;;;;;;;;23.90;54.00;;;;;;10254563;28;89085;-64
2023/07/17 11:58:14;;;;;;;;;;;23.80;54.30;;;;;;10254385;28;89166;-64
2023/07/17 12:03:16;;;;;;;;;;;23.80;54.30;;;;;;10254506;28;88660;-63
2023/07/17 12:08:18;;;;;;;;;;;23.80;54.50;;;;;;10254629;28;89246;-64
2023/07/17 12:13:20;;;;;;;;;;;23.80;54.90;;;;;;10254096;28;90173;-64
2023/07/17 12:18:22;;;;;;;;;;;23.70;55.10;;;;;;10254188;28;89362;-63
2023/07/17 12:23:24;;;;;;;;;;;23.70;55.20;;;;;;10255835;28;89917;-63
2023/07/17 12:28:26;;;;;;;;;;;23.70;55.00;;;;;;10254078;28;90180;-62
2023/07/17 12:33:27;;;;;;;;;;;23.70;55.40;;;;;;10235869;28;90102;-62
2023/07/17 12:38:29;;;;;;;;;;;23.70;55.50;;;;;;10253510;28;90880;-64
2023/07/17 12:43:31;;;;;;;;;;;23.70;55.40;;;;;;10252884;28;90139;-64
2023/07/17 12:48:32;;;;;;;;;;;23.70;55.70;;;;;;10235174;28;90075;-68
2023/07/17 12:53:34;;;;;;;;;;;23.70;55.60;;;;;;10252800;28;89170;-68
2023/07/17 12:58:36;;;;;;;;;;;23.80;55.70;;;;;;10252626;28;90407;-68
2023/07/17 13:03:38;;;;;;;;;;;23.80;55.70;;;;;;10234768;28;90238;-66
2023/07/17 13:08:40;;;;;;;;;;;23.80;55.90;;;;;;10252652;28;89061;-67
2023/07/17 13:13:42;;;;;;;;;;;23.80;56.00;;;;;;10235608;28;89404;-67
2023/07/17 13:18:43;;;;;;;;;;;23.80;56.00;;;;;;10235311;28;90278;-67
2023/07/17 13:23:45;;;;;;;;;;;23.80;55.90;;;;;;10252020;28;89238;-63
2023/07/17 13:28:47;;;;;;;;;;;23.80;56.20;;;;;;10233759;28;89677;-64
2023/07/17 13:33:49;;;;;;;;;;;23.70;56.20;;;;;;10251370;28;89159;-63
2023/07/17 13:38:51;;;;;;;;;;;23.70;56.20;;;;;;10234275;28;89149;-63
2023/07/17 13:43:52;;;;;;;;;;;23.70;56.20;;;;;;10234431;28;89239;-66
2023/07/17 13:48:54;;;;;;;;;;;23.70;56.20;;;;;;10259179;28;90355;-63
2023/07/17 13:53:56;;;;;;;;;;;23.70;56.20;;;;;;10258638;28;88125;-67
2023/07/17 13:58:58;;;;;;;;;;;23.70;56.30;;;;;;10259085;28;88980;-66
2023/07/17 14:04:02;;;;;;;;;;;23.70;56.40;;;;;;10258210;28;88506;-67
2023/07/17 14:09:05;;;;;;;;;;;23.70;56.30;;;;;;10259464;28;88900;-66
2023/07/17 14:14:06;;;;;;;;;;;23.70;56.40;;;;;;10258811;28;88913;-67
2023/07/17 14:19:08;;;;;;;;;;;23.70;56.30;;;;;;10239938;28;90886;-68
2023/07/17 14:24:10;;;;;;;;;;;23.70;56.10;;;;;;10259175;28;89206;-63
2023/07/17 14:29:12;;;;;;;;;;;23.60;56.00;;;;;;10239874;28;88187;-66
2023/07/17 14:34:13;;;;;;;;;;;23.70;56.00;;;;;;10257826;28;89255;-63
2023/07/17 14:39:15;;;;;;;;;;;23.70;55.90;;;;;;10256622;28;90028;-67
2023/07/17 14:44:17;;;;;;;;;;;23.70;55.70;;;;;;10257603;28;90101;-66
2023/07/17 14:49:19;;;;;;;;;;;23.70;55.70;;;;;;10238924;28;90187;-63
2023/07/17 14:54:21;;;;;;;;;;;23.70;55.60;;;;;;10256647;28;88395;-68
2023/07/17 14:59:22;;;;;;;;;;;23.60;55.60;;;;;;10256165;28;89254;-63
2023/07/17 15:04:24;;;;;;;;;;;23.60;55.80;;;;;;10238634;28;89035;-67
2023/07/17 15:09:26;;;;;;;;;;;23.60;55.70;;;;;;10256381;28;90947;-67
2023/07/17 15:14:28;;;;;;;;;;;23.60;55.70;;;;;;10256363;28;90280;-67
2023/07/17 15:19:29;;;;;;;;;;;23.60;55.70;;;;;;10256367;28;90241;-63
2023/07/17 15:24:31;;;;;;;;;;;23.70;55.70;;;;;;10256212;28;88062;-64
2023/07/17 15:29:33;;;;;;;;;;;23.60;55.50;;;;;;10256402;28;90285;-63
2023/07/17 15:34:35;;;;;;;;;;;23.70;55.70;;;;;;10254431;28;89682;-67
2023/07/17 15:39:36;;;;;;;;;;;23.60;55.50;;;;;;10255800;28;88543;-64
2023/07/17 15:44:38;;;;;;;;;;;23.70;55.40;;;;;;10256718;28;88482;-64
2023/07/17 15:49:40;;;;;;;;;;;23.70;55.30;;;;;;10255011;28;90162;-66
2023/07/17 15:54:42;;;;;;;;;;;23.60;55.20;;;;;;10238033;28;88342;-63
2023/07/17 15:59:43;;;;;;;;;;;23.70;55.20;;;;;;10253624;28;90697;-67
2023/07/17 16:04:45;;;;;;;;;;;23.60;55.00;;;;;;10251781;28;89292;-67
2023/07/17 16:09:47;;;;;;;;;;;23.70;55.10;;;;;;10236434;28;89249;-64
2023/07/17 16:14:49;;;;;;;;;;;23.70;55.10;;;;;;10253993;28;89678;-67
2023/07/17 16:19:51;;;;;;;;;;;23.70;55.00;;;;;;10254012;28;90227;-67
2023/07/17 16:24:53;;;;;;;;;;;23.70;55.00;;;;;;10236737;28;89026;-63
2023/07/17 16:29:55;;;;;;;;;;;23.70;54.90;;;;;;10253532;28;89678;-64
2023/07/17 16:34:57;;;;;;;;;;;23.70;54.80;;;;;;10254764;28;89301;-63
2023/07/17 16:39:59;;;;;;;;;;;23.70;54.90;;;;;;10253385;28;90099;-63
2023/07/17 16:45:01;;;;;;;;;;;23.70;54.70;;;;;;10263902;28;89297;-62
2023/07/17 16:50:03;;;;;;;;;;;23.70;54.60;;;;;;10273783;28;89398;-62
2023/07/17 16:55:05;;;;;;;;;;;23.80;54.70;;;;;;10292464;28;90007;-61
2023/07/17 17:00:07;;;;;;;;;;;23.90;54.60;;;;;;10292654;28;88164;-62
2023/07/17 17:05:09;;;;;;;;;;;24.10;54.60;;;;;;10291633;28;89171;-62
2023/07/17 17:10:11;;;;;;;;;;;24.20;54.30;;;;;;10292605;28;89218;-62
2023/07/17 17:15:13;;;;;;;;;;;24.30;53.80;;;;;;10292599;28;90396;-62
2023/07/17 17:20:15;;;;;;;;;;;24.30;53.80;;;;;;10291380;28;88320;-67
2023/07/17 17:25:17;;;;;;;;;;;24.30;53.70;;;;;;10275614;28;89351;-66
2023/07/17 17:30:21;;;;;;;;;;;24.30;53.60;;;;;;10274159;28;90091;-66
2023/07/17 17:35:23;;;;;;;;;;;24.40;53.50;;;;;;10292409;28;89771;-66
2023/07/17 17:40:24;;;;;;;;;;;24.40;53.40;;;;;;10291043;28;89911;-67
2023/07/17 17:45:28;;;;;;;;;;;24.40;53.40;;;;;;10292778;28;90070;-66
2023/07/17 17:50:29;;;;;;;;;;;24.40;53.40;;;;;;10291228;28;90162;-67
2023/07/17 17:55:31;;;;;;;;;;;24.40;53.30;;;;;;10274909;28;89279;-66
2023/07/17 18:00:35;;;;;;;;;;;24.40;53.20;;;;;;10291917;28;88081;-66
2023/07/17 18:05:37;;;;;;;;;;;24.40;53.20;;;;;;10292018;28;89903;-67
2023/07/17 18:10:39;;;;;;;;;;;24.40;53.10;;;;;;10291509;28;89811;-67
2023/07/17 18:15:41;;;;;;;;;;;24.50;53.00;;;;;;10275324;28;88300;-67
2023/07/17 18:20:43;;;;;;;;;;;24.60;52.90;;;;;;10292419;28;88766;-62
2023/07/17 18:25:45;;;;;;;;;;;24.70;52.80;;;;;;10292162;28;90011;-66
2023/07/17 18:30:47;;;;;;;;;;;24.70;52.60;;;;;;10292864;28;89943;-66
2023/07/17 18:35:51;;;;;;;;;;;24.70;52.40;;;;;;10281258;28;88566;-66
2023/07/17 18:40:52;;;;;;;;;;;24.80;52.30;;;;;;10298105;28;88179;-66
2023/07/17 18:45:54;;;;;;;;;;;24.70;52.30;;;;;;10297174;28;89120;-66
2023/07/17 18:51:01;;;;;;;;;;;24.70;52.40;;;;;;10297418;28;88095;-66
2023/07/17 18:56:03;;;;;;;;;;;24.60;52.50;;;;;;10297079;28;90004;-66
2023/07/17 19:01:05;;;;;;;;;;;24.50;52.60;;;;;;10297766;28;90174;-62
2023/07/17 19:06:07;;;;;;;;;;;24.40;52.70;;;;;;10297460;28;89635;-62
2023/07/17 19:11:15;;;;;;;;;;;24.40;52.80;;;;;;10296643;28;89120;-66
2023/07/17 19:16:19;;;;;;;;;;;24.40;52.90;;;;;;10296875;28;88835;-66
2023/07/17 19:21:21;;;;;;;;;;;24.40;53.10;;;;;;10295225;28;90919;-66
2023/07/17 19:26:25;;;;;;;;;;;24.30;53.10;;;;;;10278750;28;88408;-62
2023/07/17 19:31:27;;;;;;;;;;;24.30;53.20;;;;;;10295584;28;89122;-62
2023/07/17 19:36:29;;;;;;;;;;;24.30;53.20;;;;;;10295069;28;89287;-62
2023/07/17 19:41:34;;;;;;;;;;;24.20;53.20;;;;;;10278338;28;88417;-62
2023/07/17 19:46:36;;;;;;;;;;;24.30;53.30;;;;;;10294490;28;89164;-62
2023/07/17 19:51:39;;;;;;;;;;;24.20;53.20;;;;;;10294872;28;89256;-62
2023/07/17 19:56:41;;;;;;;;;;;24.20;53.10;;;;;;10295997;28;92534;-62
2023/07/17 20:01:43;;;;;;;;;;;24.20;53.10;;;;;;10295449;28;89903;-62
2023/07/17 20:06:46;;;;;;;;;;;24.20;53.10;;;;;;10293350;28;89039;-62
2023/07/17 20:11:48;;;;;;;;;;;24.20;53.10;;;;;;10293846;28;90344;-67
2023/07/17 20:16:50;;;;;;;;;;;24.20;53.10;;;;;;10294356;28;89280;-66
2023/07/17 20:21:51;;;;;;;;;;;24.20;53.10;;;;;;10293602;28;90018;-66
2023/07/17 20:26:53;;;;;;;;;;;24.20;53.10;;;;;;10294348;28;89270;-62
2023/07/17 20:31:55;;;;;;;;;;;24.20;53.10;;;;;;10293290;28;89192;-62
2023/07/17 20:36:57;;;;;;;;;;;24.20;54.10;;;;;;10293430;28;90074;-62
2023/07/17 20:41:58;;;;;;;;;;;24.20;53.10;;;;;;10293835;28;90404;-62
2023/07/17 20:47:00;;;;;;;;;;;24.20;53.10;;;;;;10293383;28;88392;-62
2023/07/17 20:52:03;;;;;;;;;;;24.20;53.10;;;;;;10292414;28;90261;-62
2023/07/17 20:57:05;;;;;;;;;;;24.10;53.10;;;;;;10275198;28;90010;-62
2023/07/17 21:02:06;;;;;;;;;;;24.10;53.20;;;;;;10291322;28;89866;-61
2023/07/17 21:07:09;;;;;;;;;;;24.10;53.20;;;;;;10293312;28;90090;-66
2023/07/17 21:12:11;;;;;;;;;;;24.00;53.20;;;;;;10275879;28;89337;-65
2023/07/17 21:17:13;;;;;;;;;;;24.00;53.20;;;;;;10292319;28;90252;-66
2023/07/17 21:22:15;;;;;;;;;;;23.90;53.10;;;;;;10293489;28;90001;-66
2023/07/17 21:27:16;;;;;;;;;;;23.90;53.10;;;;;;10292489;28;89645;-67
2023/07/17 21:32:18;;;;;;;;;;;23.90;53.20;;;;;;10291574;28;89991;-66
2023/07/17 21:37:20;;;;;;;;;;;23.90;53.30;;;;;;10276173;28;89313;-67
2023/07/17 21:42:22;;;;;;;;;;;23.80;53.20;;;;;;10291273;28;88339;-66
2023/07/17 21:47:24;;;;;;;;;;;23.80;53.20;;;;;;10291516;28;90018;-65
2023/07/17 21:52:26;;;;;;;;;;;23.80;53.10;;;;;;10291054;28;90794;-66
2023/07/17 21:57:28;;;;;;;;;;;23.80;53.20;;;;;;10290612;28;89047;-66
2023/07/17 22:02:30;;;;;;;;;;;23.80;53.10;;;;;;10292582;28;90107;-66
2023/07/17 22:07:33;;;;;;;;;;;23.70;53.20;;;;;;10295327;28;89940;-66
2023/07/17 22:12:35;;;;;;;;;;;23.70;53.20;;;;;;10298996;28;90059;-66
2023/07/17 22:17:36;;;;;;;;;;;23.70;53.30;;;;;;10297797;28;90048;-66
2023/07/17 22:22:38;;;;;;;;;;;23.70;53.30;;;;;;10297744;28;90017;-66
2023/07/17 22:27:40;;;;;;;;;;;23.70;53.40;;;;;;10298563;28;88757;-66
2023/07/17 22:32:42;;;;;;;;;;;23.70;53.30;;;;;;10297813;28;90007;-66
2023/07/17 22:37:44;;;;;;;;;;;23.60;53.30;;;;;;10296490;28;88967;-66
2023/07/17 22:42:45;;;;;;;;;;;23.60;53.30;;;;;;10296787;28;90917;-66
2023/07/17 22:47:47;;;;;;;;;;;23.60;53.30;;;;;;10296860;28;90137;-66
2023/07/17 22:52:49;;;;;;;;;;;23.60;53.40;;;;;;10297279;28;90092;-65
2023/07/17 22:57:51;;;;;;;;;;;23.60;53.40;;;;;;10296972;28;89132;-66
2023/07/17 23:02:53;;;;;;;;;;;23.50;53.40;;;;;;10297590;28;88935;-66
2023/07/17 23:07:54;;;;;;;;;;;23.50;53.40;;;;;;10279595;28;90151;-66
2023/07/17 23:12:56;;;;;;;;;;;23.50;53.40;;;;;;10278800;28;90220;-66
2023/07/17 23:17:58;;;;;;;;;;;23.50;53.50;;;;;;10296602;28;88502;-61
2023/07/17 23:23:04;;;;;;;;;;;23.50;53.50;;;;;;10295723;28;89523;-61
2023/07/17 23:28:06;;;;;;;;;;;23.50;53.60;;;;;;10296314;28;89786;-61
2023/07/17 23:33:09;;;;;;;;;;;23.50;53.60;;;;;;10293468;28;90029;-61
2023/07/17 23:38:11;;;;;;;;;;;23.50;53.60;;;;;;10295341;28;89196;-62
2023/07/17 23:43:13;;;;;;;;;;;23.40;53.60;;;;;;10295911;28;90173;-61
2023/07/17 23:48:15;;;;;;;;;;;23.40;53.70;;;;;;10294580;28;89882;-61
2023/07/17 23:53:17;;;;;;;;;;;23.40;53.70;;;;;;10295668;28;90139;-61
2023/07/17 23:58:20;;;;;;;;;;;23.40;53.70;;;;;;10294403;28;88363;-61
